GMMX

Menara Airport

Marrakech, Morocco
METAR GMMX 241430Z 27005KT 180V330 CAVOK 28/14 Q1015 NOSIG
Observed Flight Rules
Jun-24 @ 14:30 UTC (32 minutes ago) Visual Flight Rules
Wind Visibility Clouds
270° at 5 knots 10,000+ meters
  • Clear skies
Temperatures Readings
Current 28°C / 82°F
Dewpoint 14°C / 57°F
Humidity 42%
Altimeter 29.97" Hg
Pressure 1015 hPa
Elevation 466
METAR GMMX 241430Z 27005KT 180V330 CAVOK 28/14 Q1015 NOSIG
Observed Flight Rules
Jun-24 @ 14:30 UTC
(32 minutes ago)
VFR
Wind Visibility
270° at 5 knots 10,000+ meters
Clouds
  • Clear skies
Temperature Dewpoint
28°C / 82°F 14°C / 57°F
Humidity Altimeter Pressure
42% 29.97" Hg 1015 hPa